sensor_id;sensor_type;location;lat;lon;timestamp;temperature;humidity
15574;DHT22;7888;46.748;8.102;2023-09-08T00:00:57;25.70;51.80
15574;DHT22;7888;46.748;8.102;2023-09-08T00:03:23;25.70;51.90
15574;DHT22;7888;46.748;8.102;2023-09-08T00:05:49;25.60;51.70
15574;DHT22;7888;46.748;8.102;2023-09-08T00:08:15;25.60;51.90
15574;DHT22;7888;46.748;8.102;2023-09-08T00:10:41;25.60;51.80
15574;DHT22;7888;46.748;8.102;2023-09-08T00:13:06;25.60;52.00
15574;DHT22;7888;46.748;8.102;2023-09-08T00:15:36;25.60;52.00
15574;DHT22;7888;46.748;8.102;2023-09-08T00:20:27;25.50;51.80
15574;DHT22;7888;46.748;8.102;2023-09-08T00:22:53;25.50;51.90
15574;DHT22;7888;46.748;8.102;2023-09-08T00:25:19;25.50;52.10
15574;DHT22;7888;46.748;8.102;2023-09-08T00:27:44;25.50;52.00
15574;DHT22;7888;46.748;8.102;2023-09-08T00:30:10;25.50;52.10
15574;DHT22;7888;46.748;8.102;2023-09-08T00:32:36;25.50;52.10
15574;DHT22;7888;46.748;8.102;2023-09-08T00:35:02;25.40;52.20
15574;DHT22;7888;46.748;8.102;2023-09-08T00:37:30;25.40;52.80
15574;DHT22;7888;46.748;8.102;2023-09-08T00:39:56;25.40;52.20
15574;DHT22;7888;46.748;8.102;2023-09-08T00:42:22;25.40;52.20
15574;DHT22;7888;46.748;8.102;2023-09-08T00:44:48;25.30;52.10
15574;DHT22;7888;46.748;8.102;2023-09-08T00:47:13;25.30;52.10
15574;DHT22;7888;46.748;8.102;2023-09-08T00:49:39;25.30;52.00
15574;DHT22;7888;46.748;8.102;2023-09-08T00:52:05;25.30;52.10
15574;DHT22;7888;46.748;8.102;2023-09-08T00:54:31;25.30;52.20
15574;DHT22;7888;46.748;8.102;2023-09-08T00:56:57;25.30;52.30
15574;DHT22;7888;46.748;8.102;2023-09-08T00:59:26;25.20;52.40
15574;DHT22;7888;46.748;8.102;2023-09-08T01:01:53;25.20;52.50
15574;DHT22;7888;46.748;8.102;2023-09-08T01:04:18;25.20;52.50
15574;DHT22;7888;46.748;8.102;2023-09-08T01:06:45;25.10;52.50
15574;DHT22;7888;46.748;8.102;2023-09-08T01:09:12;25.10;52.50
15574;DHT22;7888;46.748;8.102;2023-09-08T01:11:39;25.10;52.50
15574;DHT22;7888;46.748;8.102;2023-09-08T01:14:05;25.10;52.90
15574;DHT22;7888;46.748;8.102;2023-09-08T01:16:30;25.10;52.80
15574;DHT22;7888;46.748;8.102;2023-09-08T01:18:56;25.00;53.00
15574;DHT22;7888;46.748;8.102;2023-09-08T01:25:14;25.00;53.00
15574;DHT22;7888;46.748;8.102;2023-09-08T01:27:51;24.90;52.60
15574;DHT22;7888;46.748;8.102;2023-09-08T01:30:18;24.90;53.00
15574;DHT22;7888;46.748;8.102;2023-09-08T01:32:46;24.90;52.50
15574;DHT22;7888;46.748;8.102;2023-09-08T01:35:13;24.90;52.80
15574;DHT22;7888;46.748;8.102;2023-09-08T01:37:47;24.90;52.90
15574;DHT22;7888;46.748;8.102;2023-09-08T01:40:14;24.80;53.10
15574;DHT22;7888;46.748;8.102;2023-09-08T01:42:41;24.80;53.00
15574;DHT22;7888;46.748;8.102;2023-09-08T01:45:07;24.80;53.00
15574;DHT22;7888;46.748;8.102;2023-09-08T01:47:34;24.80;53.20
15574;DHT22;7888;46.748;8.102;2023-09-08T01:50:00;24.80;53.30
15574;DHT22;7888;46.748;8.102;2023-09-08T01:52:26;24.70;53.30
15574;DHT22;7888;46.748;8.102;2023-09-08T01:54:52;24.70;53.40
15574;DHT22;7888;46.748;8.102;2023-09-08T01:57:19;24.70;53.20
15574;DHT22;7888;46.748;8.102;2023-09-08T01:59:44;24.70;53.30
15574;DHT22;7888;46.748;8.102;2023-09-08T02:02:11;24.70;53.50
15574;DHT22;7888;46.748;8.102;2023-09-08T02:04:37;24.70;53.20
15574;DHT22;7888;46.748;8.102;2023-09-08T02:07:03;24.60;53.40
15574;DHT22;7888;46.748;8.102;2023-09-08T02:09:34;24.60;53.40
15574;DHT22;7888;46.748;8.102;2023-09-08T02:12:02;24.60;53.60
15574;DHT22;7888;46.748;8.102;2023-09-08T02:14:29;24.60;53.50
15574;DHT22;7888;46.748;8.102;2023-09-08T02:16:56;24.50;53.60
15574;DHT22;7888;46.748;8.102;2023-09-08T02:19:23;24.50;53.50
15574;DHT22;7888;46.748;8.102;2023-09-08T02:21:49;24.50;53.60
15574;DHT22;7888;46.748;8.102;2023-09-08T02:24:14;24.50;53.60
15574;DHT22;7888;46.748;8.102;2023-09-08T02:26:41;24.50;53.70
15574;DHT22;7888;46.748;8.102;2023-09-08T02:29:07;24.50;53.90
15574;DHT22;7888;46.748;8.102;2023-09-08T02:31:33;24.50;53.60
15574;DHT22;7888;46.748;8.102;2023-09-08T02:33:59;24.40;53.80
15574;DHT22;7888;46.748;8.102;2023-09-08T02:36:25;24.40;53.90
15574;DHT22;7888;46.748;8.102;2023-09-08T02:38:52;24.40;53.90
15574;DHT22;7888;46.748;8.102;2023-09-08T02:41:18;24.40;53.90
15574;DHT22;7888;46.748;8.102;2023-09-08T02:43:45;24.40;53.80
15574;DHT22;7888;46.748;8.102;2023-09-08T02:46:10;24.40;53.90
15574;DHT22;7888;46.748;8.102;2023-09-08T02:48:36;24.40;53.90
15574;DHT22;7888;46.748;8.102;2023-09-08T02:51:02;24.30;53.90
15574;DHT22;7888;46.748;8.102;2023-09-08T02:53:28;24.30;53.80
15574;DHT22;7888;46.748;8.102;2023-09-08T02:55:57;24.30;53.80
15574;DHT22;7888;46.748;8.102;2023-09-08T02:58:24;24.30;53.90
15574;DHT22;7888;46.748;8.102;2023-09-08T03:00:51;24.30;53.90
15574;DHT22;7888;46.748;8.102;2023-09-08T03:03:20;24.20;53.90
15574;DHT22;7888;46.748;8.102;2023-09-08T03:05:46;24.20;54.10
15574;DHT22;7888;46.748;8.102;2023-09-08T03:08:12;24.20;54.10
15574;DHT22;7888;46.748;8.102;2023-09-08T03:10:37;24.20;54.10
15574;DHT22;7888;46.748;8.102;2023-09-08T03:13:04;24.20;54.30
15574;DHT22;7888;46.748;8.102;2023-09-08T03:15:30;24.20;54.10
15574;DHT22;7888;46.748;8.102;2023-09-08T03:17:57;24.10;54.10
15574;DHT22;7888;46.748;8.102;2023-09-08T03:20:27;24.10;54.30
15574;DHT22;7888;46.748;8.102;2023-09-08T03:22:54;24.10;54.20
15574;DHT22;7888;46.748;8.102;2023-09-08T03:25:20;24.10;54.30
15574;DHT22;7888;46.748;8.102;2023-09-08T03:27:46;24.10;54.30
15574;DHT22;7888;46.748;8.102;2023-09-08T03:30:12;24.10;54.40
15574;DHT22;7888;46.748;8.102;2023-09-08T03:32:38;24.10;54.30
15574;DHT22;7888;46.748;8.102;2023-09-08T03:35:05;24.10;54.30
15574;DHT22;7888;46.748;8.102;2023-09-08T03:37:35;24.00;54.40
15574;DHT22;7888;46.748;8.102;2023-09-08T03:40:01;24.00;54.50
15574;DHT22;7888;46.748;8.102;2023-09-08T03:42:28;24.00;54.50
15574;DHT22;7888;46.748;8.102;2023-09-08T03:44:54;24.00;54.30
15574;DHT22;7888;46.748;8.102;2023-09-08T03:47:19;24.00;54.60
15574;DHT22;7888;46.748;8.102;2023-09-08T03:49:45;24.00;54.50
15574;DHT22;7888;46.748;8.102;2023-09-08T03:52:11;24.00;54.60
15574;DHT22;7888;46.748;8.102;2023-09-08T03:54:37;23.90;54.50
15574;DHT22;7888;46.748;8.102;2023-09-08T03:57:03;23.90;54.30
15574;DHT22;7888;46.748;8.102;2023-09-08T03:59:29;23.90;54.30
15574;DHT22;7888;46.748;8.102;2023-09-08T04:01:55;23.90;54.30
15574;DHT22;7888;46.748;8.102;2023-09-08T04:04:21;23.90;54.40
15574;DHT22;7888;46.748;8.102;2023-09-08T04:06:47;23.80;54.50
15574;DHT22;7888;46.748;8.102;2023-09-08T04:09:13;23.80;55.30
15574;DHT22;7888;46.748;8.102;2023-09-08T04:11:39;23.80;54.70
15574;DHT22;7888;46.748;8.102;2023-09-08T04:14:04;23.80;54.70
15574;DHT22;7888;46.748;8.102;2023-09-08T04:16:30;23.80;54.60
15574;DHT22;7888;46.748;8.102;2023-09-08T04:18:56;23.70;54.70
15574;DHT22;7888;46.748;8.102;2023-09-08T04:21:22;23.80;54.70
15574;DHT22;7888;46.748;8.102;2023-09-08T04:23:47;23.70;54.50
15574;DHT22;7888;46.748;8.102;2023-09-08T04:26:13;23.70;54.80
15574;DHT22;7888;46.748;8.102;2023-09-08T04:28:39;23.70;54.70
15574;DHT22;7888;46.748;8.102;2023-09-08T04:31:05;23.70;54.70
15574;DHT22;7888;46.748;8.102;2023-09-08T04:33:30;23.70;54.80
15574;DHT22;7888;46.748;8.102;2023-09-08T04:35:56;23.70;54.70
15574;DHT22;7888;46.748;8.102;2023-09-08T04:38:22;23.70;54.90
15574;DHT22;7888;46.748;8.102;2023-09-08T04:40:48;23.60;55.00
15574;DHT22;7888;46.748;8.102;2023-09-08T04:43:13;23.60;54.80
15574;DHT22;7888;46.748;8.102;2023-09-08T04:45:39;23.60;55.00
15574;DHT22;7888;46.748;8.102;2023-09-08T04:48:05;23.60;55.10
15574;DHT22;7888;46.748;8.102;2023-09-08T04:50:31;23.50;55.00
15574;DHT22;7888;46.748;8.102;2023-09-08T04:52:57;23.60;55.20
15574;DHT22;7888;46.748;8.102;2023-09-08T04:55:22;23.50;55.30
15574;DHT22;7888;46.748;8.102;2023-09-08T04:57:48;23.50;55.30
15574;DHT22;7888;46.748;8.102;2023-09-08T05:00:14;23.50;55.90
